sensor_id;sensor_type;location;lat;lon;timestamp;P1;durP1;ratioP1;P2;durP2;ratioP2
60292;SDS011;52402;52.670;6.750;2022-08-25T00:01:39;7.45;;;6.65;;
60292;SDS011;52402;52.670;6.750;2022-08-25T00:04:09;9.73;;;7.20;;
60292;SDS011;52402;52.670;6.750;2022-08-25T00:06:36;7.82;;;7.00;;
60292;SDS011;52402;52.670;6.750;2022-08-25T00:09:03;7.65;;;6.63;;
60292;SDS011;52402;52.670;6.750;2022-08-25T00:11:31;8.88;;;7.18;;
60292;SDS011;52402;52.670;6.750;2022-08-25T00:13:59;8.07;;;6.90;;
60292;SDS011;52402;52.670;6.750;2022-08-25T00:16:30;9.30;;;7.25;;
60292;SDS011;52402;52.670;6.750;2022-08-25T00:18:57;9.45;;;7.03;;
60292;SDS011;52402;52.670;6.750;2022-08-25T00:21:25;9.25;;;6.93;;
60292;SDS011;52402;52.670;6.750;2022-08-25T00:23:52;7.65;;;6.35;;
60292;SDS011;52402;52.670;6.750;2022-08-25T00:26:19;8.40;;;7.00;;
60292;SDS011;52402;52.670;6.750;2022-08-25T00:28:45;8.27;;;6.30;;
60292;SDS011;52402;52.670;6.750;2022-08-25T00:31:11;9.40;;;7.00;;
60292;SDS011;52402;52.670;6.750;2022-08-25T00:33:39;8.18;;;6.57;;
60292;SDS011;52402;52.670;6.750;2022-08-25T00:36:05;7.88;;;6.90;;
60292;SDS011;52402;52.670;6.750;2022-08-25T00:38:31;8.65;;;6.32;;
60292;SDS011;52402;52.670;6.750;2022-08-25T00:40:56;7.82;;;6.82;;
60292;SDS011;52402;52.670;6.750;2022-08-25T00:43:35;7.32;;;6.40;;
60292;SDS011;52402;52.670;6.750;2022-08-25T00:46:17;7.50;;;6.20;;
60292;SDS011;52402;52.670;6.750;2022-08-25T00:48:59;8.68;;;6.43;;
60292;SDS011;52402;52.670;6.750;2022-08-25T00:51:32;9.93;;;6.55;;
60292;SDS011;52402;52.670;6.750;2022-08-25T00:54:04;8.85;;;6.55;;
60292;SDS011;52402;52.670;6.750;2022-08-25T00:56:31;7.20;;;6.50;;
60292;SDS011;52402;52.670;6.750;2022-08-25T00:58:58;7.93;;;6.40;;
60292;SDS011;52402;52.670;6.750;2022-08-25T01:01:25;10.32;;;6.55;;
60292;SDS011;52402;52.670;6.750;2022-08-25T01:03:51;7.68;;;6.43;;
60292;SDS011;52402;52.670;6.750;2022-08-25T01:06:17;8.15;;;6.18;;
60292;SDS011;52402;52.670;6.750;2022-08-25T01:08:43;7.50;;;6.20;;
60292;SDS011;52402;52.670;6.750;2022-08-25T01:11:10;7.20;;;6.40;;
60292;SDS011;52402;52.670;6.750;2022-08-25T01:13:42;7.00;;;5.88;;
60292;SDS011;52402;52.670;6.750;2022-08-25T01:16:14;7.68;;;6.05;;
60292;SDS011;52402;52.670;6.750;2022-08-25T01:18:41;8.05;;;6.20;;
60292;SDS011;52402;52.670;6.750;2022-08-25T01:21:09;8.52;;;6.43;;
60292;SDS011;52402;52.670;6.750;2022-08-25T01:23:35;8.38;;;6.63;;
60292;SDS011;52402;52.670;6.750;2022-08-25T01:26:03;7.75;;;6.03;;
60292;SDS011;52402;52.670;6.750;2022-08-25T01:28:32;7.93;;;6.68;;
60292;SDS011;52402;52.670;6.750;2022-08-25T01:30:58;7.72;;;6.10;;
60292;SDS011;52402;52.670;6.750;2022-08-25T01:33:24;8.98;;;6.35;;
60292;SDS011;52402;52.670;6.750;2022-08-25T01:35:50;7.47;;;5.90;;
60292;SDS011;52402;52.670;6.750;2022-08-25T01:38:16;7.25;;;5.88;;
60292;SDS011;52402;52.670;6.750;2022-08-25T01:40:42;10.43;;;6.38;;
60292;SDS011;52402;52.670;6.750;2022-08-25T01:45:42;7.88;;;5.68;;
60292;SDS011;52402;52.670;6.750;2022-08-25T01:48:10;7.77;;;6.30;;
60292;SDS011;52402;52.670;6.750;2022-08-25T01:50:37;7.25;;;5.80;;
60292;SDS011;52402;52.670;6.750;2022-08-25T01:55:29;7.90;;;6.60;;
60292;SDS011;52402;52.670;6.750;2022-08-25T01:58:15;9.25;;;6.13;;
60292;SDS011;52402;52.670;6.750;2022-08-25T02:00:46;8.98;;;6.25;;
60292;SDS011;52402;52.670;6.750;2022-08-25T02:03:13;8.38;;;6.10;;
60292;SDS011;52402;52.670;6.750;2022-08-25T02:05:40;8.73;;;5.95;;
60292;SDS011;52402;52.670;6.750;2022-08-25T02:08:09;6.68;;;5.97;;
60292;SDS011;52402;52.670;6.750;2022-08-25T02:10:35;8.23;;;6.07;;
60292;SDS011;52402;52.670;6.750;2022-08-25T02:13:02;8.75;;;6.40;;
60292;SDS011;52402;52.670;6.750;2022-08-25T02:15:29;7.78;;;6.53;;
60292;SDS011;52402;52.670;6.750;2022-08-25T02:17:55;8.52;;;6.57;;
60292;SDS011;52402;52.670;6.750;2022-08-25T02:20:21;6.75;;;5.63;;
60292;SDS011;52402;52.670;6.750;2022-08-25T02:22:48;11.45;;;6.50;;
60292;SDS011;52402;52.670;6.750;2022-08-25T02:25:15;7.68;;;5.97;;
60292;SDS011;52402;52.670;6.750;2022-08-25T02:27:42;7.53;;;5.90;;
60292;SDS011;52402;52.670;6.750;2022-08-25T02:30:08;8.02;;;5.65;;
60292;SDS011;52402;52.670;6.750;2022-08-25T02:32:34;8.95;;;5.90;;
60292;SDS011;52402;52.670;6.750;2022-08-25T02:35:00;8.90;;;5.90;;
60292;SDS011;52402;52.670;6.750;2022-08-25T02:37:26;7.97;;;5.45;;
60292;SDS011;52402;52.670;6.750;2022-08-25T02:39:51;8.50;;;6.25;;
60292;SDS011;52402;52.670;6.750;2022-08-25T02:42:17;7.10;;;6.30;;
60292;SDS011;52402;52.670;6.750;2022-08-25T02:44:42;7.95;;;6.10;;
60292;SDS011;52402;52.670;6.750;2022-08-25T02:47:08;7.60;;;6.07;;
60292;SDS011;52402;52.670;6.750;2022-08-25T02:49:33;9.05;;;5.70;;
60292;SDS011;52402;52.670;6.750;2022-08-25T02:51:59;8.63;;;6.50;;
60292;SDS011;52402;52.670;6.750;2022-08-25T02:54:25;6.90;;;6.00;;
60292;SDS011;52402;52.670;6.750;2022-08-25T02:56:52;8.43;;;6.10;;
60292;SDS011;52402;52.670;6.750;2022-08-25T02:59:17;7.22;;;5.70;;
60292;SDS011;52402;52.670;6.750;2022-08-25T03:01:43;6.93;;;5.95;;
60292;SDS011;52402;52.670;6.750;2022-08-25T03:04:10;9.27;;;5.97;;
60292;SDS011;52402;52.670;6.750;2022-08-25T03:06:36;9.05;;;5.97;;
60292;SDS011;52402;52.670;6.750;2022-08-25T03:09:02;7.38;;;5.68;;
60292;SDS011;52402;52.670;6.750;2022-08-25T03:11:28;9.00;;;5.55;;
60292;SDS011;52402;52.670;6.750;2022-08-25T03:13:55;9.20;;;5.75;;
60292;SDS011;52402;52.670;6.750;2022-08-25T03:16:21;9.23;;;5.78;;
60292;SDS011;52402;52.670;6.750;2022-08-25T03:18:47;7.30;;;6.07;;
60292;SDS011;52402;52.670;6.750;2022-08-25T03:21:13;7.47;;;5.82;;
60292;SDS011;52402;52.670;6.750;2022-08-25T03:23:39;8.90;;;5.85;;
60292;SDS011;52402;52.670;6.750;2022-08-25T03:26:06;7.82;;;5.53;;
60292;SDS011;52402;52.670;6.750;2022-08-25T03:28:50;8.77;;;6.10;;
60292;SDS011;52402;52.670;6.750;2022-08-25T03:31:15;6.57;;;5.80;;
60292;SDS011;52402;52.670;6.750;2022-08-25T03:33:41;7.57;;;5.85;;
60292;SDS011;52402;52.670;6.750;2022-08-25T03:36:07;7.82;;;6.53;;
60292;SDS011;52402;52.670;6.750;2022-08-25T03:38:33;8.55;;;5.78;;
60292;SDS011;52402;52.670;6.750;2022-08-25T03:41:00;7.85;;;6.10;;
60292;SDS011;52402;52.670;6.750;2022-08-25T03:43:26;7.57;;;6.20;;
60292;SDS011;52402;52.670;6.750;2022-08-25T03:45:51;7.80;;;6.53;;
60292;SDS011;52402;52.670;6.750;2022-08-25T03:48:17;11.38;;;6.45;;
60292;SDS011;52402;52.670;6.750;2022-08-25T03:50:44;9.27;;;6.35;;
60292;SDS011;52402;52.670;6.750;2022-08-25T03:53:14;7.75;;;5.82;;
60292;SDS011;52402;52.670;6.750;2022-08-25T03:55:40;6.90;;;5.82;;
60292;SDS011;52402;52.670;6.750;2022-08-25T03:58:06;7.53;;;6.00;;
60292;SDS011;52402;52.670;6.750;2022-08-25T04:00:32;10.73;;;6.55;;
60292;SDS011;52402;52.670;6.750;2022-08-25T04:02:58;9.27;;;6.45;;
60292;SDS011;52402;52.670;6.750;2022-08-25T04:05:23;10.50;;;6.97;;
60292;SDS011;52402;52.670;6.750;2022-08-25T04:07:49;8.85;;;6.13;;
60292;SDS011;52402;52.670;6.750;2022-08-25T04:10:15;8.68;;;6.80;;
60292;SDS011;52402;52.670;6.750;2022-08-25T04:12:40;8.70;;;6.80;;
60292;SDS011;52402;52.670;6.750;2022-08-25T04:15:07;8.57;;;6.53;;
60292;SDS011;52402;52.670;6.750;2022-08-25T04:17:35;8.75;;;6.95;;
60292;SDS011;52402;52.670;6.750;2022-08-25T04:20:04;7.82;;;5.97;;
60292;SDS011;52402;52.670;6.750;2022-08-25T04:22:32;8.45;;;6.32;;
60292;SDS011;52402;52.670;6.750;2022-08-25T04:24:58;7.93;;;6.20;;
60292;SDS011;52402;52.670;6.750;2022-08-25T04:27:23;8.05;;;6.55;;
60292;SDS011;52402;52.670;6.750;2022-08-25T04:29:49;7.88;;;6.78;;
60292;SDS011;52402;52.670;6.750;2022-08-25T04:32:15;8.45;;;6.50;;
60292;SDS011;52402;52.670;6.750;2022-08-25T04:34:40;9.07;;;6.32;;
60292;SDS011;52402;52.670;6.750;2022-08-25T04:37:07;8.63;;;6.93;;
60292;SDS011;52402;52.670;6.750;2022-08-25T04:39:33;8.60;;;6.22;;
60292;SDS011;52402;52.670;6.750;2022-08-25T04:41:59;10.27;;;6.60;;
60292;SDS011;52402;52.670;6.750;2022-08-25T04:44:25;9.38;;;6.50;;
60292;SDS011;52402;52.670;6.750;2022-08-25T04:46:51;8.77;;;6.82;;
60292;SDS011;52402;52.670;6.750;2022-08-25T04:49:17;7.50;;;6.63;;
60292;SDS011;52402;52.670;6.750;2022-08-25T04:51:42;9.40;;;7.05;;
60292;SDS011;52402;52.670;6.750;2022-08-25T04:54:10;7.32;;;6.50;;
60292;SDS011;52402;52.670;6.750;2022-08-25T04:56:40;7.07;;;6.07;;
60292;SDS011;52402;52.670;6.750;2022-08-25T04:59:11;7.00;;;6.20;;
60292;SDS011;52402;52.670;6.750;2022-08-25T05:01:38;9.52;;;6.70;;
60292;SDS011;52402;52.670;6.750;2022-08-25T05:04:06;7.88;;;6.95;;
60292;SDS011;52402;52.670;6.750;2022-08-25T05:06:33;9.15;;;6.70;;
60292;SDS011;52402;52.670;6.750;2022-08-25T05:08:59;10.98;;;6.93;;
60292;SDS011;52402;52.670;6.750;2022-08-25T05:11:25;7.93;;;6.53;;
60292;SDS011;52402;52.670;6.750;2022-08-25T05:13:54;10.95;;;6.50;;
60292;SDS011;52402;52.670;6.750;2022-08-25T05:16:21;9.70;;;7.00;;
60292;SDS011;52402;52.670;6.750;2022-08-25T05:18:48;8.48;;;6.55;;
60292;SDS011;52402;52.670;6.750;2022-08-25T05:21:15;8.77;;;6.68;;
60292;SDS011;52402;52.670;6.750;2022-08-25T05:23:43;9.32;;;6.55;;
60292;SDS011;52402;52.670;6.750;2022-08-25T05:26:15;8.40;;;7.22;;
60292;SDS011;52402;52.670;6.750;2022-08-25T05:28:43;8.73;;;6.35;;
60292;SDS011;52402;52.670;6.750;2022-08-25T05:31:10;10.57;;;7.13;;
60292;SDS011;52402;52.670;6.750;2022-08-25T05:33:36;8.75;;;6.95;;
60292;SDS011;52402;52.670;6.750;2022-08-25T05:36:03;8.93;;;7.05;;
60292;SDS011;52402;52.670;6.750;2022-08-25T05:38:29;10.30;;;6.95;;
60292;SDS011;52402;52.670;6.750;2022-08-25T05:40:56;9.90;;;6.93;;
60292;SDS011;52402;52.670;6.750;2022-08-25T05:43:30;10.68;;;6.78;;
60292;SDS011;52402;52.670;6.750;2022-08-25T05:45:56;11.30;;;6.90;;
60292;SDS011;52402;52.670;6.750;2022-08-25T05:48:22;10.27;;;6.70;;
60292;SDS011;52402;52.670;6.750;2022-08-25T05:50:53;9.63;;;7.82;;
60292;SDS011;52402;52.670;6.750;2022-08-25T05:53:20;8.77;;;7.65;;
60292;SDS011;52402;52.670;6.750;2022-08-25T05:55:46;8.07;;;7.22;;
60292;SDS011;52402;52.670;6.750;2022-08-25T05:58:13;10.00;;;7.38;;
60292;SDS011;52402;52.670;6.750;2022-08-25T06:00:39;8.50;;;7.28;;
60292;SDS011;52402;52.670;6.750;2022-08-25T06:03:05;10.73;;;7.43;;
60292;SDS011;52402;52.670;6.750;2022-08-25T06:05:31;9.85;;;7.85;;
60292;SDS011;52402;52.670;6.750;2022-08-25T06:07:56;11.52;;;8.00;;
60292;SDS011;52402;52.670;6.750;2022-08-25T06:10:23;11.05;;;7.80;;
60292;SDS011;52402;52.670;6.750;2022-08-25T06:12:49;8.70;;;7.80;;
60292;SDS011;52402;52.670;6.750;2022-08-25T06:15:16;10.25;;;8.15;;
60292;SDS011;52402;52.670;6.750;2022-08-25T06:17:44;9.77;;;7.57;;
60292;SDS011;52402;52.670;6.750;2022-08-25T06:20:20;9.02;;;8.13;;
60292;SDS011;52402;52.670;6.750;2022-08-25T06:22:47;9.95;;;7.72;;
60292;SDS011;52402;52.670;6.750;2022-08-25T06:25:14;9.88;;;8.00;;
60292;SDS011;52402;52.670;6.750;2022-08-25T06:27:41;11.00;;;8.40;;
60292;SDS011;52402;52.670;6.750;2022-08-25T06:30:09;14.25;;;8.20;;
60292;SDS011;52402;52.670;6.750;2022-08-25T06:32:38;10.55;;;8.13;;
60292;SDS011;52402;52.670;6.750;2022-08-25T06:35:06;10.55;;;8.18;;
60292;SDS011;52402;52.670;6.750;2022-08-25T06:37:34;10.23;;;8.10;;
60292;SDS011;52402;52.670;6.750;2022-08-25T06:40:00;9.43;;;7.40;;
60292;SDS011;52402;52.670;6.750;2022-08-25T06:42:26;8.35;;;7.22;;
60292;SDS011;52402;52.670;6.750;2022-08-25T06:44:52;9.55;;;7.18;;
60292;SDS011;52402;52.670;6.750;2022-08-25T06:47:18;9.85;;;7.72;;
60292;SDS011;52402;52.670;6.750;2022-08-25T06:49:44;8.63;;;7.28;;
60292;SDS011;52402;52.670;6.750;2022-08-25T06:52:10;9.55;;;7.10;;
60292;SDS011;52402;52.670;6.750;2022-08-25T06:54:37;13.13;;;7.82;;
60292;SDS011;52402;52.670;6.750;2022-08-25T06:57:03;9.65;;;7.13;;
60292;SDS011;52402;52.670;6.750;2022-08-25T06:59:29;9.82;;;6.90;;
60292;SDS011;52402;52.670;6.750;2022-08-25T07:01:56;10.63;;;7.22;;
60292;SDS011;52402;52.670;6.750;2022-08-25T07:04:21;10.13;;;7.13;;
60292;SDS011;52402;52.670;6.750;2022-08-25T07:06:47;8.85;;;6.78;;
60292;SDS011;52402;52.670;6.750;2022-08-25T07:09:12;9.25;;;6.63;;
60292;SDS011;52402;52.670;6.750;2022-08-25T07:11:39;10.27;;;6.93;;
60292;SDS011;52402;52.670;6.750;2022-08-25T07:14:06;10.55;;;7.50;;
60292;SDS011;52402;52.670;6.750;2022-08-25T07:16:35;10.77;;;8.25;;
60292;SDS011;52402;52.670;6.750;2022-08-25T07:19:01;13.13;;;7.13;;
60292;SDS011;52402;52.670;6.750;2022-08-25T07:21:28;9.48;;;7.20;;
60292;SDS011;52402;52.670;6.750;2022-08-25T07:23:56;9.23;;;7.30;;
60292;SDS011;52402;52.670;6.750;2022-08-25T07:26:24;9.15;;;6.32;;
60292;SDS011;52402;52.670;6.750;2022-08-25T07:28:52;11.02;;;6.63;;
60292;SDS011;52402;52.670;6.750;2022-08-25T07:31:19;10.45;;;7.07;;
60292;SDS011;52402;52.670;6.750;2022-08-25T07:33:44;8.73;;;7.10;;
60292;SDS011;52402;52.670;6.750;2022-08-25T07:36:29;9.52;;;7.13;;
60292;SDS011;52402;52.670;6.750;2022-08-25T07:38:56;10.45;;;6.43;;
60292;SDS011;52402;52.670;6.750;2022-08-25T07:41:22;9.27;;;7.00;;
60292;SDS011;52402;52.670;6.750;2022-08-25T07:43:48;8.57;;;6.60;;
60292;SDS011;52402;52.670;6.750;2022-08-25T07:46:14;8.63;;;6.35;;
60292;SDS011;52402;52.670;6.750;2022-08-25T07:48:40;11.10;;;6.90;;
60292;SDS011;52402;52.670;6.750;2022-08-25T07:51:06;10.95;;;6.28;;
60292;SDS011;52402;52.670;6.750;2022-08-25T07:53:33;9.95;;;5.93;;
60292;SDS011;52402;52.670;6.750;2022-08-25T07:55:59;8.85;;;6.10;;
60292;SDS011;52402;52.670;6.750;2022-08-25T07:58:24;11.15;;;6.75;;
60292;SDS011;52402;52.670;6.750;2022-08-25T08:00:50;11.70;;;6.40;;
60292;SDS011;52402;52.670;6.750;2022-08-25T08:03:17;11.38;;;6.25;;
60292;SDS011;52402;52.670;6.750;2022-08-25T08:05:43;10.43;;;5.97;;
60292;SDS011;52402;52.670;6.750;2022-08-25T08:08:09;9.68;;;5.85;;
60292;SDS011;52402;52.670;6.750;2022-08-25T08:10:37;9.85;;;5.70;;
60292;SDS011;52402;52.670;6.750;2022-08-25T08:13:05;7.82;;;5.88;;
60292;SDS011;52402;52.670;6.750;2022-08-25T08:15:31;8.15;;;5.88;;
60292;SDS011;52402;52.670;6.750;2022-08-25T08:17:57;8.70;;;5.78;;
60292;SDS011;52402;52.670;6.750;2022-08-25T08:20:23;8.95;;;5.93;;
60292;SDS011;52402;52.670;6.750;2022-08-25T08:22:50;9.90;;;6.05;;
60292;SDS011;52402;52.670;6.750;2022-08-25T08:25:16;11.70;;;6.20;;
60292;SDS011;52402;52.670;6.750;2022-08-25T08:27:42;9.57;;;5.60;;
60292;SDS011;52402;52.670;6.750;2022-08-25T08:30:09;10.82;;;5.95;;
60292;SDS011;52402;52.670;6.750;2022-08-25T08:32:36;9.40;;;5.90;;
60292;SDS011;52402;52.670;6.750;2022-08-25T08:35:02;9.63;;;5.97;;
60292;SDS011;52402;52.670;6.750;2022-08-25T08:37:29;10.55;;;5.80;;
60292;SDS011;52402;52.670;6.750;2022-08-25T08:39:55;9.32;;;5.55;;
60292;SDS011;52402;52.670;6.750;2022-08-25T08:45:36;9.48;;;5.97;;
60292;SDS011;52402;52.670;6.750;2022-08-25T08:51:00;8.65;;;5.38;;
60292;SDS011;52402;52.670;6.750;2022-08-25T08:53:31;17.83;;;5.70;;
60292;SDS011;52402;52.670;6.750;2022-08-25T08:56:24;9.07;;;5.40;;
60292;SDS011;52402;52.670;6.750;2022-08-25T08:59:27;7.13;;;5.32;;
60292;SDS011;52402;52.670;6.750;2022-08-25T09:01:51;8.65;;;5.43;;
60292;SDS011;52402;52.670;6.750;2022-08-25T09:04:33;7.65;;;5.45;;
60292;SDS011;52402;52.670;6.750;2022-08-25T09:07:03;7.25;;;5.13;;
60292;SDS011;52402;52.670;6.750;2022-08-25T09:09:35;8.02;;;5.00;;
60292;SDS011;52402;52.670;6.750;2022-08-25T09:22:53;9.10;;;4.75;;
60292;SDS011;52402;52.670;6.750;2022-08-25T09:25:34;9.85;;;5.18;;
60292;SDS011;52402;52.670;6.750;2022-08-25T09:28:21;8.77;;;5.20;;
60292;SDS011;52402;52.670;6.750;2022-08-25T09:31:43;10.88;;;5.40;;
60292;SDS011;52402;52.670;6.750;2022-08-25T09:33:52;9.65;;;5.30;;
60292;SDS011;52402;52.670;6.750;2022-08-25T09:36:21;9.70;;;5.15;;
60292;SDS011;52402;52.670;6.750;2022-08-25T09:38:47;14.93;;;5.35;;
60292;SDS011;52402;52.670;6.750;2022-08-25T09:41:17;10.85;;;4.90;;
60292;SDS011;52402;52.670;6.750;2022-08-25T09:43:59;9.15;;;5.00;;
60292;SDS011;52402;52.670;6.750;2022-08-25T09:46:25;8.00;;;4.80;;
60292;SDS011;52402;52.670;6.750;2022-08-25T09:48:54;10.25;;;5.10;;
60292;SDS011;52402;52.670;6.750;2022-08-25T09:51:26;9.88;;;4.50;;
60292;SDS011;52402;52.670;6.750;2022-08-25T09:56:30;10.02;;;4.88;;
60292;SDS011;52402;52.670;6.750;2022-08-25T10:01:49;9.18;;;4.80;;
60292;SDS011;52402;52.670;6.750;2022-08-25T10:04:24;6.75;;;4.40;;
60292;SDS011;52402;52.670;6.750;2022-08-25T10:06:51;7.05;;;4.28;;
60292;SDS011;52402;52.670;6.750;2022-08-25T10:09:34;8.55;;;4.38;;
60292;SDS011;52402;52.670;6.750;2022-08-25T10:12:51;8.48;;;4.50;;
60292;SDS011;52402;52.670;6.750;2022-08-25T10:23:30;7.10;;;4.40;;
60292;SDS011;52402;52.670;6.750;2022-08-25T10:26:04;9.13;;;3.90;;
60292;SDS011;52402;52.670;6.750;2022-08-25T10:28:43;7.70;;;3.90;;
60292;SDS011;52402;52.670;6.750;2022-08-25T10:31:22;15.60;;;4.65;;
60292;SDS011;52402;52.670;6.750;2022-08-25T10:34:12;7.60;;;4.18;;
60292;SDS011;52402;52.670;6.750;2022-08-25T10:42:35;7.85;;;4.40;;
60292;SDS011;52402;52.670;6.750;2022-08-25T10:45:16;6.15;;;4.13;;
60292;SDS011;52402;52.670;6.750;2022-08-25T10:53:49;6.93;;;3.78;;
60292;SDS011;52402;52.670;6.750;2022-08-25T10:56:32;9.25;;;4.10;;
60292;SDS011;52402;52.670;6.750;2022-08-25T10:59:12;10.75;;;3.72;;
60292;SDS011;52402;52.670;6.750;2022-08-25T11:07:08;7.43;;;3.67;;
60292;SDS011;52402;52.670;6.750;2022-08-25T11:09:42;6.70;;;3.50;;
60292;SDS011;52402;52.670;6.750;2022-08-25T11:12:17;6.68;;;3.78;;
60292;SDS011;52402;52.670;6.750;2022-08-25T11:15:30;7.30;;;4.05;;
60292;SDS011;52402;52.670;6.750;2022-08-25T11:20:27;5.32;;;3.50;;
60292;SDS011;52402;52.670;6.750;2022-08-25T11:23:10;6.15;;;3.70;;
60292;SDS011;52402;52.670;6.750;2022-08-25T11:25:45;6.68;;;4.15;;
60292;SDS011;52402;52.670;6.750;2022-08-25T11:30:50;5.07;;;3.45;;
60292;SDS011;52402;52.670;6.750;2022-08-25T11:33:17;6.20;;;3.67;;
60292;SDS011;52402;52.670;6.750;2022-08-25T11:35:48;8.52;;;3.63;;
60292;SDS011;52402;52.670;6.750;2022-08-25T11:44:04;6.07;;;3.63;;
60292;SDS011;52402;52.670;6.750;2022-08-25T11:52:53;9.13;;;3.85;;
60292;SDS011;52402;52.670;6.750;2022-08-25T11:55:44;8.05;;;4.15;;
60292;SDS011;52402;52.670;6.750;2022-08-25T11:58:27;7.57;;;3.92;;
60292;SDS011;52402;52.670;6.750;2022-08-25T12:01:01;5.63;;;3.58;;
60292;SDS011;52402;52.670;6.750;2022-08-25T12:14:14;5.00;;;3.53;;
60292;SDS011;52402;52.670;6.750;2022-08-25T12:25:29;6.78;;;3.70;;
60292;SDS011;52402;52.670;6.750;2022-08-25T12:36:10;7.70;;;3.75;;
60292;SDS011;52402;52.670;6.750;2022-08-25T12:38:51;7.47;;;4.35;;
60292;SDS011;52402;52.670;6.750;2022-08-25T12:41:22;5.50;;;4.10;;
60292;SDS011;52402;52.670;6.750;2022-08-25T12:43:51;7.50;;;4.00;;
60292;SDS011;52402;52.670;6.750;2022-08-25T12:48:54;12.05;;;4.40;;
60292;SDS011;52402;52.670;6.750;2022-08-25T12:51:26;7.30;;;4.00;;
60292;SDS011;52402;52.670;6.750;2022-08-25T12:54:25;14.13;;;4.07;;
60292;SDS011;52402;52.670;6.750;2022-08-25T12:57:01;6.15;;;3.75;;
60292;SDS011;52402;52.670;6.750;2022-08-25T12:59:40;7.03;;;3.60;;
60292;SDS011;52402;52.670;6.750;2022-08-25T13:05:21;5.78;;;3.60;;
60292;SDS011;52402;52.670;6.750;2022-08-25T13:08:21;6.95;;;3.45;;
60292;SDS011;52402;52.670;6.750;2022-08-25T13:10:55;7.75;;;4.00;;
60292;SDS011;52402;52.670;6.750;2022-08-25T13:16:17;6.05;;;4.05;;
60292;SDS011;52402;52.670;6.750;2022-08-25T13:18:45;6.95;;;4.20;;
60292;SDS011;52402;52.670;6.750;2022-08-25T13:21:15;9.25;;;4.22;;
60292;SDS011;52402;52.670;6.750;2022-08-25T13:23:49;6.68;;;4.07;;
60292;SDS011;52402;52.670;6.750;2022-08-25T13:26:21;8.48;;;3.72;;
60292;SDS011;52402;52.670;6.750;2022-08-25T13:28:55;5.45;;;3.88;;
60292;SDS011;52402;52.670;6.750;2022-08-25T13:31:24;8.18;;;4.30;;
60292;SDS011;52402;52.670;6.750;2022-08-25T13:33:57;5.82;;;4.30;;
60292;SDS011;52402;52.670;6.750;2022-08-25T13:36:29;5.28;;;4.20;;
60292;SDS011;52402;52.670;6.750;2022-08-25T13:39:18;6.65;;;4.32;;
60292;SDS011;52402;52.670;6.750;2022-08-25T13:41:46;8.43;;;4.18;;
60292;SDS011;52402;52.670;6.750;2022-08-25T13:46:41;11.77;;;4.75;;
60292;SDS011;52402;52.670;6.750;2022-08-25T13:49:08;6.93;;;4.68;;
60292;SDS011;52402;52.670;6.750;2022-08-25T13:51:34;6.30;;;4.47;;
60292;SDS011;52402;52.670;6.750;2022-08-25T13:54:02;9.57;;;4.60;;
60292;SDS011;52402;52.670;6.750;2022-08-25T13:56:39;6.82;;;4.68;;
60292;SDS011;52402;52.670;6.750;2022-08-25T13:59:10;7.72;;;5.07;;
60292;SDS011;52402;52.670;6.750;2022-08-25T14:01:46;7.03;;;4.80;;
60292;SDS011;52402;52.670;6.750;2022-08-25T14:04:24;5.20;;;4.45;;
60292;SDS011;52402;52.670;6.750;2022-08-25T14:09:47;7.57;;;4.97;;
60292;SDS011;52402;52.670;6.750;2022-08-25T14:18:08;8.15;;;5.38;;
60292;SDS011;52402;52.670;6.750;2022-08-25T14:20:42;6.68;;;5.40;;
60292;SDS011;52402;52.670;6.750;2022-08-25T14:23:10;6.47;;;5.20;;
60292;SDS011;52402;52.670;6.750;2022-08-25T14:25:41;6.95;;;5.22;;
60292;SDS011;52402;52.670;6.750;2022-08-25T14:28:09;9.27;;;5.60;;
60292;SDS011;52402;52.670;6.750;2022-08-25T14:30:48;7.20;;;5.00;;
60292;SDS011;52402;52.670;6.750;2022-08-25T14:33:17;10.23;;;5.88;;
60292;SDS011;52402;52.670;6.750;2022-08-25T14:35:46;8.75;;;5.95;;
60292;SDS011;52402;52.670;6.750;2022-08-25T14:40:39;7.47;;;5.15;;
60292;SDS011;52402;52.670;6.750;2022-08-25T14:43:05;9.27;;;5.68;;
60292;SDS011;52402;52.670;6.750;2022-08-25T14:45:32;8.10;;;5.55;;
60292;SDS011;52402;52.670;6.750;2022-08-25T14:48:02;7.70;;;5.30;;
60292;SDS011;52402;52.670;6.750;2022-08-25T14:50:32;8.90;;;5.45;;
60292;SDS011;52402;52.670;6.750;2022-08-25T14:52:58;8.77;;;5.50;;
60292;SDS011;52402;52.670;6.750;2022-08-25T14:55:24;6.78;;;5.63;;
60292;SDS011;52402;52.670;6.750;2022-08-25T14:57:50;6.78;;;5.35;;
60292;SDS011;52402;52.670;6.750;2022-08-25T15:00:15;7.38;;;5.43;;
60292;SDS011;52402;52.670;6.750;2022-08-25T15:02:41;9.13;;;5.25;;
60292;SDS011;52402;52.670;6.750;2022-08-25T15:05:19;8.00;;;5.43;;
60292;SDS011;52402;52.670;6.750;2022-08-25T15:07:48;7.72;;;5.55;;
60292;SDS011;52402;52.670;6.750;2022-08-25T15:10:34;7.97;;;5.55;;
60292;SDS011;52402;52.670;6.750;2022-08-25T15:12:59;8.18;;;5.35;;
60292;SDS011;52402;52.670;6.750;2022-08-25T15:15:25;7.40;;;5.72;;
60292;SDS011;52402;52.670;6.750;2022-08-25T15:17:52;7.50;;;5.07;;
60292;SDS011;52402;52.670;6.750;2022-08-25T15:20:18;9.30;;;5.60;;
60292;SDS011;52402;52.670;6.750;2022-08-25T15:22:44;9.05;;;5.13;;
60292;SDS011;52402;52.670;6.750;2022-08-25T15:25:12;12.13;;;5.60;;
60292;SDS011;52402;52.670;6.750;2022-08-25T15:27:38;9.40;;;5.70;;
60292;SDS011;52402;52.670;6.750;2022-08-25T15:30:05;8.20;;;5.53;;
60292;SDS011;52402;52.670;6.750;2022-08-25T15:32:31;9.27;;;5.50;;
60292;SDS011;52402;52.670;6.750;2022-08-25T15:34:58;6.53;;;5.90;;
60292;SDS011;52402;52.670;6.750;2022-08-25T15:37:24;8.30;;;5.57;;
60292;SDS011;52402;52.670;6.750;2022-08-25T15:39:50;7.50;;;5.80;;
60292;SDS011;52402;52.670;6.750;2022-08-25T15:42:16;8.05;;;5.45;;
60292;SDS011;52402;52.670;6.750;2022-08-25T15:44:43;8.25;;;5.70;;
60292;SDS011;52402;52.670;6.750;2022-08-25T15:47:10;7.32;;;5.57;;
60292;SDS011;52402;52.670;6.750;2022-08-25T15:49:36;6.63;;;5.50;;
60292;SDS011;52402;52.670;6.750;2022-08-25T15:52:02;7.90;;;5.95;;
60292;SDS011;52402;52.670;6.750;2022-08-25T15:54:29;8.93;;;5.93;;
60292;SDS011;52402;52.670;6.750;2022-08-25T15:56:56;8.00;;;5.72;;
60292;SDS011;52402;52.670;6.750;2022-08-25T15:59:22;8.60;;;5.47;;
60292;SDS011;52402;52.670;6.750;2022-08-25T16:01:51;8.25;;;5.97;;
60292;SDS011;52402;52.670;6.750;2022-08-25T16:04:17;7.93;;;5.82;;
60292;SDS011;52402;52.670;6.750;2022-08-25T16:06:45;7.50;;;5.82;;
60292;SDS011;52402;52.670;6.750;2022-08-25T16:09:10;9.90;;;5.68;;
60292;SDS011;52402;52.670;6.750;2022-08-25T16:11:36;6.93;;;6.22;;
60292;SDS011;52402;52.670;6.750;2022-08-25T16:14:03;8.50;;;5.80;;
60292;SDS011;52402;52.670;6.750;2022-08-25T16:16:29;12.05;;;6.03;;
60292;SDS011;52402;52.670;6.750;2022-08-25T16:18:58;6.82;;;6.13;;
60292;SDS011;52402;52.670;6.750;2022-08-25T16:21:28;8.35;;;6.20;;
60292;SDS011;52402;52.670;6.750;2022-08-25T16:23:59;8.65;;;5.88;;
60292;SDS011;52402;52.670;6.750;2022-08-25T16:26:28;8.90;;;6.20;;
60292;SDS011;52402;52.670;6.750;2022-08-25T16:28:54;7.90;;;6.40;;
60292;SDS011;52402;52.670;6.750;2022-08-25T16:31:20;9.60;;;6.32;;
60292;SDS011;52402;52.670;6.750;2022-08-25T16:33:46;8.68;;;6.68;;
60292;SDS011;52402;52.670;6.750;2022-08-25T16:36:16;8.30;;;6.35;;
60292;SDS011;52402;52.670;6.750;2022-08-25T16:38:44;11.32;;;7.00;;
60292;SDS011;52402;52.670;6.750;2022-08-25T16:41:12;11.18;;;6.40;;
60292;SDS011;52402;52.670;6.750;2022-08-25T16:46:07;8.30;;;6.53;;
60292;SDS011;52402;52.670;6.750;2022-08-25T16:48:35;9.32;;;6.50;;
60292;SDS011;52402;52.670;6.750;2022-08-25T16:51:12;8.63;;;6.88;;
60292;SDS011;52402;52.670;6.750;2022-08-25T16:53:42;9.38;;;6.90;;
60292;SDS011;52402;52.670;6.750;2022-08-25T16:56:27;8.50;;;7.10;;
60292;SDS011;52402;52.670;6.750;2022-08-25T16:58:53;8.23;;;6.97;;
60292;SDS011;52402;52.670;6.750;2022-08-25T17:01:21;8.23;;;6.70;;